sensor_id;sensor_type;location;lat;lon;timestamp;temperature;humidity
37408;DHT22;24866;50.248;8.252;2022-10-16T00:00:00;14.30;99.90
37408;DHT22;24866;50.248;8.252;2022-10-16T00:02:29;14.30;99.90
37408;DHT22;24866;50.248;8.252;2022-10-16T00:05:01;14.20;99.90
37408;DHT22;24866;50.248;8.252;2022-10-16T00:07:30;14.20;99.90
37408;DHT22;24866;50.248;8.252;2022-10-16T00:10:00;14.20;99.90
37408;DHT22;24866;50.248;8.252;2022-10-16T00:12:30;14.20;99.90
37408;DHT22;24866;50.248;8.252;2022-10-16T00:15:00;14.10;99.90
37408;DHT22;24866;50.248;8.252;2022-10-16T00:17:30;14.20;99.90
37408;DHT22;24866;50.248;8.252;2022-10-16T00:20:01;14.20;99.90
37408;DHT22;24866;50.248;8.252;2022-10-16T00:22:32;14.20;99.90
37408;DHT22;24866;50.248;8.252;2022-10-16T00:25:03;14.20;99.90
37408;DHT22;24866;50.248;8.252;2022-10-16T00:27:33;14.20;99.90
37408;DHT22;24866;50.248;8.252;2022-10-16T00:30:04;14.10;99.90
37408;DHT22;24866;50.248;8.252;2022-10-16T00:32:34;14.10;99.90
37408;DHT22;24866;50.248;8.252;2022-10-16T00:35:06;14.10;99.90
37408;DHT22;24866;50.248;8.252;2022-10-16T00:37:36;14.10;99.90
37408;DHT22;24866;50.248;8.252;2022-10-16T00:40:06;14.10;99.90
37408;DHT22;24866;50.248;8.252;2022-10-16T00:42:37;14.00;99.90
37408;DHT22;24866;50.248;8.252;2022-10-16T00:45:09;14.10;99.90
37408;DHT22;24866;50.248;8.252;2022-10-16T00:47:41;14.10;99.90
37408;DHT22;24866;50.248;8.252;2022-10-16T00:50:21;14.20;99.90
37408;DHT22;24866;50.248;8.252;2022-10-16T00:52:52;14.20;99.90
37408;DHT22;24866;50.248;8.252;2022-10-16T00:55:24;14.30;99.90
37408;DHT22;24866;50.248;8.252;2022-10-16T00:57:54;14.40;99.90
37408;DHT22;24866;50.248;8.252;2022-10-16T01:00:26;14.40;99.90
37408;DHT22;24866;50.248;8.252;2022-10-16T01:02:58;14.50;99.90
37408;DHT22;24866;50.248;8.252;2022-10-16T01:05:33;14.50;99.90
37408;DHT22;24866;50.248;8.252;2022-10-16T01:08:09;14.40;99.90
37408;DHT22;24866;50.248;8.252;2022-10-16T01:10:50;14.30;99.90
37408;DHT22;24866;50.248;8.252;2022-10-16T01:13:25;14.30;99.90
37408;DHT22;24866;50.248;8.252;2022-10-16T01:16:01;14.20;99.90
37408;DHT22;24866;50.248;8.252;2022-10-16T01:18:39;14.20;99.90
37408;DHT22;24866;50.248;8.252;2022-10-16T01:21:15;14.10;99.90
37408;DHT22;24866;50.248;8.252;2022-10-16T01:23:57;14.10;99.90
37408;DHT22;24866;50.248;8.252;2022-10-16T01:26:39;14.20;99.90
37408;DHT22;24866;50.248;8.252;2022-10-16T01:29:17;14.20;99.90
37408;DHT22;24866;50.248;8.252;2022-10-16T01:31:52;14.10;99.90
37408;DHT22;24866;50.248;8.252;2022-10-16T01:34:31;14.00;99.90
37408;DHT22;24866;50.248;8.252;2022-10-16T01:37:05;14.10;99.90
37408;DHT22;24866;50.248;8.252;2022-10-16T01:39:39;14.10;99.90
37408;DHT22;24866;50.248;8.252;2022-10-16T01:42:17;14.10;99.90
37408;DHT22;24866;50.248;8.252;2022-10-16T01:44:51;14.10;99.90
37408;DHT22;24866;50.248;8.252;2022-10-16T01:47:23;14.10;99.90
37408;DHT22;24866;50.248;8.252;2022-10-16T01:49:55;14.10;99.90
37408;DHT22;24866;50.248;8.252;2022-10-16T01:52:28;14.20;99.90
37408;DHT22;24866;50.248;8.252;2022-10-16T01:54:59;14.20;99.90
37408;DHT22;24866;50.248;8.252;2022-10-16T01:57:31;14.20;99.90
37408;DHT22;24866;50.248;8.252;2022-10-16T02:00:09;14.10;99.90
37408;DHT22;24866;50.248;8.252;2022-10-16T02:02:38;14.20;99.90
37408;DHT22;24866;50.248;8.252;2022-10-16T02:05:12;14.30;99.90
37408;DHT22;24866;50.248;8.252;2022-10-16T02:07:45;14.30;99.90
37408;DHT22;24866;50.248;8.252;2022-10-16T02:10:15;14.30;99.90
37408;DHT22;24866;50.248;8.252;2022-10-16T02:12:48;14.30;99.90
37408;DHT22;24866;50.248;8.252;2022-10-16T02:15:21;14.30;99.90
37408;DHT22;24866;50.248;8.252;2022-10-16T02:17:50;14.40;99.90
37408;DHT22;24866;50.248;8.252;2022-10-16T02:20:25;14.40;99.90
37408;DHT22;24866;50.248;8.252;2022-10-16T02:22:57;14.40;99.90
37408;DHT22;24866;50.248;8.252;2022-10-16T02:25:31;14.40;99.90
37408;DHT22;24866;50.248;8.252;2022-10-16T02:28:04;14.40;99.90
37408;DHT22;24866;50.248;8.252;2022-10-16T02:30:41;14.40;99.90
37408;DHT22;24866;50.248;8.252;2022-10-16T02:33:13;14.40;99.90
37408;DHT22;24866;50.248;8.252;2022-10-16T02:35:45;14.40;99.90
37408;DHT22;24866;50.248;8.252;2022-10-16T02:38:16;14.40;99.90
37408;DHT22;24866;50.248;8.252;2022-10-16T02:40:46;14.60;99.90
37408;DHT22;24866;50.248;8.252;2022-10-16T02:43:17;14.60;99.90
37408;DHT22;24866;50.248;8.252;2022-10-16T02:45:48;14.60;99.90
37408;DHT22;24866;50.248;8.252;2022-10-16T02:48:18;14.60;99.90
37408;DHT22;24866;50.248;8.252;2022-10-16T02:50:48;14.60;99.90
37408;DHT22;24866;50.248;8.252;2022-10-16T02:53:18;14.50;99.90
37408;DHT22;24866;50.248;8.252;2022-10-16T02:55:47;14.50;99.90
37408;DHT22;24866;50.248;8.252;2022-10-16T02:58:17;14.50;99.90
37408;DHT22;24866;50.248;8.252;2022-10-16T03:00:49;14.50;99.90
37408;DHT22;24866;50.248;8.252;2022-10-16T03:03:19;14.60;99.90
37408;DHT22;24866;50.248;8.252;2022-10-16T03:05:48;14.50;99.90
37408;DHT22;24866;50.248;8.252;2022-10-16T03:08:18;14.20;99.90
37408;DHT22;24866;50.248;8.252;2022-10-16T03:10:53;14.10;99.90
37408;DHT22;24866;50.248;8.252;2022-10-16T03:13:23;14.10;99.90
37408;DHT22;24866;50.248;8.252;2022-10-16T03:15:54;14.00;99.90
37408;DHT22;24866;50.248;8.252;2022-10-16T03:18:24;14.20;99.90
37408;DHT22;24866;50.248;8.252;2022-10-16T03:20:54;14.20;99.90
37408;DHT22;24866;50.248;8.252;2022-10-16T03:23:24;14.10;99.90
37408;DHT22;24866;50.248;8.252;2022-10-16T03:25:54;14.00;99.90
37408;DHT22;24866;50.248;8.252;2022-10-16T03:28:23;14.00;99.90
37408;DHT22;24866;50.248;8.252;2022-10-16T03:30:55;14.00;99.90
37408;DHT22;24866;50.248;8.252;2022-10-16T03:33:24;14.00;99.90
37408;DHT22;24866;50.248;8.252;2022-10-16T03:35:55;14.00;99.90
37408;DHT22;24866;50.248;8.252;2022-10-16T03:38:25;14.10;99.90
37408;DHT22;24866;50.248;8.252;2022-10-16T03:40:54;13.90;99.90
37408;DHT22;24866;50.248;8.252;2022-10-16T03:43:24;13.90;99.90
37408;DHT22;24866;50.248;8.252;2022-10-16T03:45:55;13.90;99.90
37408;DHT22;24866;50.248;8.252;2022-10-16T03:48:25;13.80;99.90
37408;DHT22;24866;50.248;8.252;2022-10-16T03:50:55;13.80;99.90
37408;DHT22;24866;50.248;8.252;2022-10-16T03:53:25;13.80;99.90
37408;DHT22;24866;50.248;8.252;2022-10-16T03:55:55;13.70;99.90
37408;DHT22;24866;50.248;8.252;2022-10-16T03:58:25;13.70;99.90
37408;DHT22;24866;50.248;8.252;2022-10-16T04:00:56;13.70;99.90
37408;DHT22;24866;50.248;8.252;2022-10-16T04:03:26;13.80;99.90
37408;DHT22;24866;50.248;8.252;2022-10-16T04:05:56;13.70;99.90
37408;DHT22;24866;50.248;8.252;2022-10-16T04:08:26;13.70;99.90
37408;DHT22;24866;50.248;8.252;2022-10-16T04:10:55;13.80;99.90
37408;DHT22;24866;50.248;8.252;2022-10-16T04:13:25;13.80;99.90
37408;DHT22;24866;50.248;8.252;2022-10-16T04:15:57;13.80;99.90
37408;DHT22;24866;50.248;8.252;2022-10-16T04:18:26;13.90;99.90
37408;DHT22;24866;50.248;8.252;2022-10-16T04:21:02;13.90;99.90
37408;DHT22;24866;50.248;8.252;2022-10-16T04:23:32;14.00;99.90
37408;DHT22;24866;50.248;8.252;2022-10-16T04:26:03;14.00;99.90
37408;DHT22;24866;50.248;8.252;2022-10-16T04:28:32;14.00;99.90
37408;DHT22;24866;50.248;8.252;2022-10-16T04:31:05;13.90;99.90
37408;DHT22;24866;50.248;8.252;2022-10-16T04:33:35;13.80;99.90
37408;DHT22;24866;50.248;8.252;2022-10-16T04:36:05;13.80;99.90
37408;DHT22;24866;50.248;8.252;2022-10-16T04:38:35;13.60;99.90
37408;DHT22;24866;50.248;8.252;2022-10-16T04:41:06;13.80;99.90
37408;DHT22;24866;50.248;8.252;2022-10-16T04:43:36;13.90;99.90
37408;DHT22;24866;50.248;8.252;2022-10-16T04:46:07;13.80;99.90
37408;DHT22;24866;50.248;8.252;2022-10-16T04:48:38;13.90;99.90
37408;DHT22;24866;50.248;8.252;2022-10-16T04:51:08;13.90;99.90
37408;DHT22;24866;50.248;8.252;2022-10-16T04:53:38;13.80;99.90
37408;DHT22;24866;50.248;8.252;2022-10-16T04:56:08;13.90;99.90
37408;DHT22;24866;50.248;8.252;2022-10-16T04:58:38;13.90;99.90
37408;DHT22;24866;50.248;8.252;2022-10-16T05:01:09;14.00;99.90
37408;DHT22;24866;50.248;8.252;2022-10-16T05:03:39;14.00;99.90
37408;DHT22;24866;50.248;8.252;2022-10-16T05:06:08;14.00;99.90
37408;DHT22;24866;50.248;8.252;2022-10-16T05:08:38;14.00;99.90
37408;DHT22;24866;50.248;8.252;2022-10-16T05:11:08;14.10;99.90
37408;DHT22;24866;50.248;8.252;2022-10-16T05:13:38;14.20;99.90
37408;DHT22;24866;50.248;8.252;2022-10-16T05:16:09;14.20;99.90
37408;DHT22;24866;50.248;8.252;2022-10-16T05:18:39;14.20;99.90
37408;DHT22;24866;50.248;8.252;2022-10-16T05:21:09;14.00;99.90
37408;DHT22;24866;50.248;8.252;2022-10-16T05:23:39;14.00;99.90
37408;DHT22;24866;50.248;8.252;2022-10-16T05:26:09;14.10;99.90
37408;DHT22;24866;50.248;8.252;2022-10-16T05:28:41;14.10;99.90
37408;DHT22;24866;50.248;8.252;2022-10-16T05:31:12;14.30;99.90
37408;DHT22;24866;50.248;8.252;2022-10-16T05:33:42;14.10;99.90
37408;DHT22;24866;50.248;8.252;2022-10-16T05:36:12;14.20;99.90
37408;DHT22;24866;50.248;8.252;2022-10-16T05:38:42;14.10;99.90
37408;DHT22;24866;50.248;8.252;2022-10-16T05:41:12;14.00;99.90
37408;DHT22;24866;50.248;8.252;2022-10-16T05:43:42;14.10;99.90
37408;DHT22;24866;50.248;8.252;2022-10-16T05:46:13;14.10;99.90
37408;DHT22;24866;50.248;8.252;2022-10-16T05:48:43;14.10;99.90
37408;DHT22;24866;50.248;8.252;2022-10-16T05:51:14;14.10;99.90
37408;DHT22;24866;50.248;8.252;2022-10-16T05:53:44;14.00;99.90
37408;DHT22;24866;50.248;8.252;2022-10-16T05:56:14;14.00;99.90
37408;DHT22;24866;50.248;8.252;2022-10-16T05:58:44;14.10;99.90
37408;DHT22;24866;50.248;8.252;2022-10-16T06:01:16;14.10;99.90
37408;DHT22;24866;50.248;8.252;2022-10-16T06:03:46;14.20;99.90
37408;DHT22;24866;50.248;8.252;2022-10-16T06:06:18;14.20;99.90
37408;DHT22;24866;50.248;8.252;2022-10-16T06:08:49;14.30;99.90
37408;DHT22;24866;50.248;8.252;2022-10-16T06:11:21;14.30;99.90
37408;DHT22;24866;50.248;8.252;2022-10-16T06:13:51;14.40;99.90
37408;DHT22;24866;50.248;8.252;2022-10-16T06:16:23;14.40;99.90
37408;DHT22;24866;50.248;8.252;2022-10-16T06:18:54;14.40;99.90
37408;DHT22;24866;50.248;8.252;2022-10-16T06:21:26;14.50;99.90
37408;DHT22;24866;50.248;8.252;2022-10-16T06:23:56;14.50;99.90
37408;DHT22;24866;50.248;8.252;2022-10-16T06:26:28;14.60;99.90
37408;DHT22;24866;50.248;8.252;2022-10-16T06:28:59;14.60;99.90
37408;DHT22;24866;50.248;8.252;2022-10-16T06:31:30;14.70;99.90
37408;DHT22;24866;50.248;8.252;2022-10-16T06:34:01;14.70;99.90
37408;DHT22;24866;50.248;8.252;2022-10-16T06:36:33;14.80;99.90
37408;DHT22;24866;50.248;8.252;2022-10-16T06:39:04;14.80;99.90
37408;DHT22;24866;50.248;8.252;2022-10-16T06:41:35;14.80;99.90
37408;DHT22;24866;50.248;8.252;2022-10-16T06:44:06;14.80;99.90
37408;DHT22;24866;50.248;8.252;2022-10-16T06:46:38;14.90;99.90
37408;DHT22;24866;50.248;8.252;2022-10-16T06:49:08;14.80;99.90
37408;DHT22;24866;50.248;8.252;2022-10-16T06:51:38;14.80;99.90
37408;DHT22;24866;50.248;8.252;2022-10-16T06:54:09;14.90;99.90
37408;DHT22;24866;50.248;8.252;2022-10-16T06:56:39;14.90;99.90
37408;DHT22;24866;50.248;8.252;2022-10-16T06:59:09;14.90;99.90
37408;DHT22;24866;50.248;8.252;2022-10-16T07:01:40;14.80;99.90
37408;DHT22;24866;50.248;8.252;2022-10-16T07:04:10;14.80;99.90
37408;DHT22;24866;50.248;8.252;2022-10-16T07:06:40;14.80;99.90
37408;DHT22;24866;50.248;8.252;2022-10-16T07:09:10;14.80;99.90
37408;DHT22;24866;50.248;8.252;2022-10-16T07:11:40;14.90;99.90
37408;DHT22;24866;50.248;8.252;2022-10-16T07:14:15;15.00;99.90
37408;DHT22;24866;50.248;8.252;2022-10-16T07:16:47;15.00;99.90
37408;DHT22;24866;50.248;8.252;2022-10-16T07:19:17;15.00;99.90
37408;DHT22;24866;50.248;8.252;2022-10-16T07:21:47;15.00;99.90
37408;DHT22;24866;50.248;8.252;2022-10-16T07:24:17;14.90;99.90
37408;DHT22;24866;50.248;8.252;2022-10-16T07:26:47;15.00;99.90
37408;DHT22;24866;50.248;8.252;2022-10-16T07:29:19;15.00;99.90
37408;DHT22;24866;50.248;8.252;2022-10-16T07:31:50;15.00;99.90
37408;DHT22;24866;50.248;8.252;2022-10-16T07:34:21;15.00;99.90
37408;DHT22;24866;50.248;8.252;2022-10-16T07:36:51;15.00;99.90
37408;DHT22;24866;50.248;8.252;2022-10-16T07:39:21;15.20;99.90
37408;DHT22;24866;50.248;8.252;2022-10-16T07:41:50;15.20;99.90
37408;DHT22;24866;50.248;8.252;2022-10-16T07:44:20;15.20;99.90
37408;DHT22;24866;50.248;8.252;2022-10-16T07:46:52;15.20;99.90
37408;DHT22;24866;50.248;8.252;2022-10-16T07:49:21;15.20;99.90
37408;DHT22;24866;50.248;8.252;2022-10-16T07:51:51;15.20;99.90
37408;DHT22;24866;50.248;8.252;2022-10-16T07:54:21;15.20;99.90
37408;DHT22;24866;50.248;8.252;2022-10-16T07:56:51;15.30;99.90
37408;DHT22;24866;50.248;8.252;2022-10-16T07:59:21;15.30;99.90
37408;DHT22;24866;50.248;8.252;2022-10-16T08:01:53;15.40;99.90
37408;DHT22;24866;50.248;8.252;2022-10-16T08:04:22;15.50;99.90
37408;DHT22;24866;50.248;8.252;2022-10-16T08:06:52;15.50;99.90
37408;DHT22;24866;50.248;8.252;2022-10-16T08:09:22;15.50;99.90
37408;DHT22;24866;50.248;8.252;2022-10-16T08:11:52;15.50;99.90
37408;DHT22;24866;50.248;8.252;2022-10-16T08:14:22;15.60;99.90
37408;DHT22;24866;50.248;8.252;2022-10-16T08:16:53;15.70;99.90
37408;DHT22;24866;50.248;8.252;2022-10-16T08:19:23;15.70;99.90
37408;DHT22;24866;50.248;8.252;2022-10-16T08:21:53;15.70;99.90
37408;DHT22;24866;50.248;8.252;2022-10-16T08:24:23;15.70;99.90
37408;DHT22;24866;50.248;8.252;2022-10-16T08:26:53;15.80;99.90
37408;DHT22;24866;50.248;8.252;2022-10-16T08:29:23;15.90;99.90
37408;DHT22;24866;50.248;8.252;2022-10-16T08:31:55;15.90;99.90
37408;DHT22;24866;50.248;8.252;2022-10-16T08:34:24;15.90;99.90
37408;DHT22;24866;50.248;8.252;2022-10-16T08:36:54;15.90;99.90
37408;DHT22;24866;50.248;8.252;2022-10-16T08:39:24;16.00;99.90
37408;DHT22;24866;50.248;8.252;2022-10-16T08:42:11;15.90;99.90
37408;DHT22;24866;50.248;8.252;2022-10-16T08:45:19;15.90;99.90
37408;DHT22;24866;50.248;8.252;2022-10-16T08:48:00;15.80;99.90
37408;DHT22;24866;50.248;8.252;2022-10-16T08:50:37;15.90;99.90
37408;DHT22;24866;50.248;8.252;2022-10-16T08:53:14;15.90;99.90
37408;DHT22;24866;50.248;8.252;2022-10-16T08:55:48;16.30;99.90
37408;DHT22;24866;50.248;8.252;2022-10-16T08:58:20;16.40;99.90
37408;DHT22;24866;50.248;8.252;2022-10-16T09:00:54;16.50;99.90
37408;DHT22;24866;50.248;8.252;2022-10-16T09:03:37;16.50;99.90
37408;DHT22;24866;50.248;8.252;2022-10-16T09:06:21;16.50;99.90
37408;DHT22;24866;50.248;8.252;2022-10-16T09:09:08;16.40;99.90
37408;DHT22;24866;50.248;8.252;2022-10-16T09:11:46;16.60;99.90
37408;DHT22;24866;50.248;8.252;2022-10-16T09:14:34;16.70;99.90
37408;DHT22;24866;50.248;8.252;2022-10-16T09:17:21;16.70;99.90
37408;DHT22;24866;50.248;8.252;2022-10-16T09:20:02;16.80;99.90
37408;DHT22;24866;50.248;8.252;2022-10-16T09:22:33;16.90;99.90
37408;DHT22;24866;50.248;8.252;2022-10-16T09:25:11;16.80;99.90
37408;DHT22;24866;50.248;8.252;2022-10-16T09:27:42;16.70;99.90
37408;DHT22;24866;50.248;8.252;2022-10-16T09:30:16;16.70;99.90
37408;DHT22;24866;50.248;8.252;2022-10-16T09:32:49;16.70;99.90
37408;DHT22;24866;50.248;8.252;2022-10-16T09:35:24;16.70;99.90
37408;DHT22;24866;50.248;8.252;2022-10-16T09:37:56;16.70;99.90
37408;DHT22;24866;50.248;8.252;2022-10-16T09:40:28;16.70;99.90
37408;DHT22;24866;50.248;8.252;2022-10-16T09:43:05;16.60;99.90
37408;DHT22;24866;50.248;8.252;2022-10-16T09:45:36;16.60;99.90
37408;DHT22;24866;50.248;8.252;2022-10-16T09:48:11;16.70;99.90
37408;DHT22;24866;50.248;8.252;2022-10-16T09:50:43;16.90;99.90
37408;DHT22;24866;50.248;8.252;2022-10-16T09:53:14;16.90;99.90
37408;DHT22;24866;50.248;8.252;2022-10-16T09:55:49;16.90;99.90
37408;DHT22;24866;50.248;8.252;2022-10-16T09:58:22;16.90;99.90
37408;DHT22;24866;50.248;8.252;2022-10-16T10:00:53;16.90;99.90
37408;DHT22;24866;50.248;8.252;2022-10-16T10:03:35;17.00;99.90
37408;DHT22;24866;50.248;8.252;2022-10-16T10:06:18;16.90;99.90
37408;DHT22;24866;50.248;8.252;2022-10-16T10:09:02;16.90;99.90
37408;DHT22;24866;50.248;8.252;2022-10-16T10:11:44;16.90;99.90
37408;DHT22;24866;50.248;8.252;2022-10-16T10:14:24;16.90;99.90
37408;DHT22;24866;50.248;8.252;2022-10-16T10:17:14;17.10;99.90
37408;DHT22;24866;50.248;8.252;2022-10-16T10:19:51;17.20;99.90
37408;DHT22;24866;50.248;8.252;2022-10-16T10:22:30;17.30;99.90
37408;DHT22;24866;50.248;8.252;2022-10-16T10:28:22;17.40;99.90
37408;DHT22;24866;50.248;8.252;2022-10-16T10:30:59;17.70;99.90
37408;DHT22;24866;50.248;8.252;2022-10-16T10:33:40;18.10;99.90
37408;DHT22;24866;50.248;8.252;2022-10-16T10:36:21;18.00;99.90
37408;DHT22;24866;50.248;8.252;2022-10-16T10:38:57;17.90;99.90
37408;DHT22;24866;50.248;8.252;2022-10-16T10:42:08;17.80;99.90
37408;DHT22;24866;50.248;8.252;2022-10-16T10:45:11;17.70;99.90
37408;DHT22;24866;50.248;8.252;2022-10-16T10:47:51;17.50;99.90
37408;DHT22;24866;50.248;8.252;2022-10-16T10:50:26;17.40;99.90
37408;DHT22;24866;50.248;8.252;2022-10-16T10:53:08;17.50;99.90
37408;DHT22;24866;50.248;8.252;2022-10-16T10:55:46;17.40;99.90
37408;DHT22;24866;50.248;8.252;2022-10-16T11:01:26;17.50;99.90
37408;DHT22;24866;50.248;8.252;2022-10-16T11:07:05;17.80;99.90
37408;DHT22;24866;50.248;8.252;2022-10-16T11:09:41;17.70;99.90
37408;DHT22;24866;50.248;8.252;2022-10-16T11:12:17;17.80;99.90
37408;DHT22;24866;50.248;8.252;2022-10-16T11:14:54;18.00;99.90
37408;DHT22;24866;50.248;8.252;2022-10-16T11:17:28;18.10;99.90
37408;DHT22;24866;50.248;8.252;2022-10-16T11:20:03;18.10;99.90
37408;DHT22;24866;50.248;8.252;2022-10-16T11:22:38;18.30;99.90
37408;DHT22;24866;50.248;8.252;2022-10-16T11:25:13;18.10;99.90
37408;DHT22;24866;50.248;8.252;2022-10-16T11:27:50;18.20;99.90
37408;DHT22;24866;50.248;8.252;2022-10-16T11:30:22;18.20;99.90
37408;DHT22;24866;50.248;8.252;2022-10-16T11:32:56;18.20;99.90
37408;DHT22;24866;50.248;8.252;2022-10-16T11:35:39;18.30;99.90
37408;DHT22;24866;50.248;8.252;2022-10-16T11:38:18;18.30;99.90
37408;DHT22;24866;50.248;8.252;2022-10-16T11:40:54;18.60;99.90
37408;DHT22;24866;50.248;8.252;2022-10-16T11:43:32;18.70;99.90
37408;DHT22;24866;50.248;8.252;2022-10-16T11:46:09;18.80;99.90
37408;DHT22;24866;50.248;8.252;2022-10-16T11:48:45;18.70;99.90
37408;DHT22;24866;50.248;8.252;2022-10-16T11:51:24;18.70;99.90
37408;DHT22;24866;50.248;8.252;2022-10-16T11:54:01;18.70;99.90
37408;DHT22;24866;50.248;8.252;2022-10-16T11:56:32;18.70;99.90
37408;DHT22;24866;50.248;8.252;2022-10-16T11:59:13;18.60;99.90
37408;DHT22;24866;50.248;8.252;2022-10-16T12:01:48;18.70;99.90
37408;DHT22;24866;50.248;8.252;2022-10-16T12:04:24;18.70;99.90
37408;DHT22;24866;50.248;8.252;2022-10-16T12:07:01;18.90;99.90
37408;DHT22;24866;50.248;8.252;2022-10-16T12:09:36;18.90;99.90
37408;DHT22;24866;50.248;8.252;2022-10-16T12:12:24;18.70;99.90
37408;DHT22;24866;50.248;8.252;2022-10-16T12:15:18;18.80;99.90
37408;DHT22;24866;50.248;8.252;2022-10-16T12:17:49;18.90;99.90
37408;DHT22;24866;50.248;8.252;2022-10-16T12:20:22;18.90;99.90
37408;DHT22;24866;50.248;8.252;2022-10-16T12:22:56;18.70;99.90
37408;DHT22;24866;50.248;8.252;2022-10-16T12:25:28;18.60;99.90
37408;DHT22;24866;50.248;8.252;2022-10-16T12:28:04;18.60;99.90
37408;DHT22;24866;50.248;8.252;2022-10-16T12:30:36;18.60;99.90
37408;DHT22;24866;50.248;8.252;2022-10-16T12:33:19;18.50;99.90
37408;DHT22;24866;50.248;8.252;2022-10-16T12:35:51;18.30;99.90
37408;DHT22;24866;50.248;8.252;2022-10-16T12:38:25;18.20;99.90
37408;DHT22;24866;50.248;8.252;2022-10-16T12:40:59;18.20;99.90
37408;DHT22;24866;50.248;8.252;2022-10-16T12:43:38;18.10;99.90
37408;DHT22;24866;50.248;8.252;2022-10-16T12:46:26;18.10;99.90
37408;DHT22;24866;50.248;8.252;2022-10-16T12:49:23;18.20;99.90
37408;DHT22;24866;50.248;8.252;2022-10-16T12:51:58;18.40;99.90
37408;DHT22;24866;50.248;8.252;2022-10-16T12:54:30;18.50;99.90
37408;DHT22;24866;50.248;8.252;2022-10-16T12:57:32;18.50;99.90
37408;DHT22;24866;50.248;8.252;2022-10-16T13:00:08;18.60;99.90
37408;DHT22;24866;50.248;8.252;2022-10-16T13:06:03;18.60;99.90
37408;DHT22;24866;50.248;8.252;2022-10-16T13:08:50;18.60;99.90
37408;DHT22;24866;50.248;8.252;2022-10-16T13:11:41;18.80;99.90
37408;DHT22;24866;50.248;8.252;2022-10-16T13:14:45;19.00;99.90
37408;DHT22;24866;50.248;8.252;2022-10-16T13:17:23;18.90;99.90
37408;DHT22;24866;50.248;8.252;2022-10-16T13:20:03;19.00;99.90
37408;DHT22;24866;50.248;8.252;2022-10-16T13:22:44;19.10;99.90
37408;DHT22;24866;50.248;8.252;2022-10-16T13:25:23;19.00;99.90
37408;DHT22;24866;50.248;8.252;2022-10-16T13:28:00;19.10;99.90
37408;DHT22;24866;50.248;8.252;2022-10-16T13:30:32;19.20;99.90
37408;DHT22;24866;50.248;8.252;2022-10-16T13:33:07;19.30;99.90
37408;DHT22;24866;50.248;8.252;2022-10-16T13:35:49;19.10;99.90
37408;DHT22;24866;50.248;8.252;2022-10-16T13:38:21;19.00;99.90
37408;DHT22;24866;50.248;8.252;2022-10-16T13:40:54;18.90;99.90
37408;DHT22;24866;50.248;8.252;2022-10-16T13:43:27;18.90;99.90
37408;DHT22;24866;50.248;8.252;2022-10-16T13:46:00;18.90;99.90
37408;DHT22;24866;50.248;8.252;2022-10-16T13:48:32;19.00;99.90
37408;DHT22;24866;50.248;8.252;2022-10-16T13:51:06;19.00;99.90
37408;DHT22;24866;50.248;8.252;2022-10-16T13:53:40;19.00;99.90
37408;DHT22;24866;50.248;8.252;2022-10-16T13:56:12;18.90;99.90
37408;DHT22;24866;50.248;8.252;2022-10-16T13:58:43;18.90;99.90
37408;DHT22;24866;50.248;8.252;2022-10-16T14:01:17;18.80;99.90
37408;DHT22;24866;50.248;8.252;2022-10-16T14:03:49;18.80;99.90
37408;DHT22;24866;50.248;8.252;2022-10-16T14:06:22;18.70;99.90
37408;DHT22;24866;50.248;8.252;2022-10-16T14:08:58;18.70;99.90
37408;DHT22;24866;50.248;8.252;2022-10-16T14:11:29;18.80;99.90
37408;DHT22;24866;50.248;8.252;2022-10-16T14:14:00;18.80;99.90
37408;DHT22;24866;50.248;8.252;2022-10-16T14:16:32;18.80;99.90
37408;DHT22;24866;50.248;8.252;2022-10-16T14:19:04;18.80;99.90
37408;DHT22;24866;50.248;8.252;2022-10-16T14:21:37;18.80;99.90
37408;DHT22;24866;50.248;8.252;2022-10-16T14:24:13;18.80;99.90
37408;DHT22;24866;50.248;8.252;2022-10-16T14:26:44;18.80;99.90
37408;DHT22;24866;50.248;8.252;2022-10-16T14:29:18;18.90;99.90
37408;DHT22;24866;50.248;8.252;2022-10-16T14:31:56;18.90;99.90
37408;DHT22;24866;50.248;8.252;2022-10-16T14:34:28;19.00;99.90
37408;DHT22;24866;50.248;8.252;2022-10-16T14:37:01;18.90;99.90
37408;DHT22;24866;50.248;8.252;2022-10-16T14:39:35;18.80;99.90
37408;DHT22;24866;50.248;8.252;2022-10-16T14:42:14;18.90;99.90
37408;DHT22;24866;50.248;8.252;2022-10-16T14:44:48;18.80;99.90
37408;DHT22;24866;50.248;8.252;2022-10-16T14:47:23;18.90;99.90
37408;DHT22;24866;50.248;8.252;2022-10-16T14:49:55;18.90;99.90
37408;DHT22;24866;50.248;8.252;2022-10-16T14:52:28;19.00;99.90
37408;DHT22;24866;50.248;8.252;2022-10-16T14:54:58;19.00;99.90
37408;DHT22;24866;50.248;8.252;2022-10-16T14:57:31;19.10;99.90
37408;DHT22;24866;50.248;8.252;2022-10-16T15:00:06;19.00;99.90
37408;DHT22;24866;50.248;8.252;2022-10-16T15:02:39;19.00;99.90
37408;DHT22;24866;50.248;8.252;2022-10-16T15:05:16;19.00;99.90
37408;DHT22;24866;50.248;8.252;2022-10-16T15:07:50;18.90;99.90
37408;DHT22;24866;50.248;8.252;2022-10-16T15:10:23;18.80;99.90
37408;DHT22;24866;50.248;8.252;2022-10-16T15:12:54;18.80;99.90
37408;DHT22;24866;50.248;8.252;2022-10-16T15:15:32;18.60;99.90
37408;DHT22;24866;50.248;8.252;2022-10-16T15:18:04;18.60;99.90
37408;DHT22;24866;50.248;8.252;2022-10-16T15:20:38;18.50;99.90
37408;DHT22;24866;50.248;8.252;2022-10-16T15:23:14;18.50;99.90
37408;DHT22;24866;50.248;8.252;2022-10-16T15:25:46;18.50;99.90
37408;DHT22;24866;50.248;8.252;2022-10-16T15:28:18;18.50;99.90
37408;DHT22;24866;50.248;8.252;2022-10-16T15:30:50;18.50;99.90
37408;DHT22;24866;50.248;8.252;2022-10-16T15:33:21;18.50;99.90
37408;DHT22;24866;50.248;8.252;2022-10-16T15:35:52;18.50;99.90
37408;DHT22;24866;50.248;8.252;2022-10-16T15:38:23;18.40;99.90
37408;DHT22;24866;50.248;8.252;2022-10-16T15:40:54;18.40;99.90
37408;DHT22;24866;50.248;8.252;2022-10-16T15:43:24;18.50;99.90
37408;DHT22;24866;50.248;8.252;2022-10-16T15:46:00;18.40;99.90
37408;DHT22;24866;50.248;8.252;2022-10-16T15:48:31;18.40;99.90
37408;DHT22;24866;50.248;8.252;2022-10-16T15:51:05;18.30;99.90
37408;DHT22;24866;50.248;8.252;2022-10-16T15:53:36;18.30;99.90
37408;DHT22;24866;50.248;8.252;2022-10-16T15:56:09;18.20;99.90
37408;DHT22;24866;50.248;8.252;2022-10-16T15:58:40;18.30;99.90
37408;DHT22;24866;50.248;8.252;2022-10-16T16:01:10;18.20;99.90
37408;DHT22;24866;50.248;8.252;2022-10-16T16:03:40;18.20;99.90
37408;DHT22;24866;50.248;8.252;2022-10-16T16:06:12;18.20;99.90
37408;DHT22;24866;50.248;8.252;2022-10-16T16:08:44;18.10;99.90
37408;DHT22;24866;50.248;8.252;2022-10-16T16:11:15;18.10;99.90
37408;DHT22;24866;50.248;8.252;2022-10-16T16:13:45;18.10;99.90
37408;DHT22;24866;50.248;8.252;2022-10-16T16:16:16;18.10;99.90
37408;DHT22;24866;50.248;8.252;2022-10-16T16:18:48;18.00;99.90
37408;DHT22;24866;50.248;8.252;2022-10-16T16:21:22;18.10;99.90